sensor_id;sensor_type;location;lat;lon;timestamp;temperature;humidity
13856;DHT22;6998;53.608;9.958;2023-04-24T00:01:15;12.50;99.90
13856;DHT22;6998;53.608;9.958;2023-04-24T00:03:42;12.60;99.90
13856;DHT22;6998;53.608;9.958;2023-04-24T00:06:09;12.50;99.90
13856;DHT22;6998;53.608;9.958;2023-04-24T00:08:36;12.50;99.90
13856;DHT22;6998;53.608;9.958;2023-04-24T00:11:03;12.60;99.90
13856;DHT22;6998;53.608;9.958;2023-04-24T00:13:30;12.60;99.90
13856;DHT22;6998;53.608;9.958;2023-04-24T00:15:57;12.60;99.90
13856;DHT22;6998;53.608;9.958;2023-04-24T00:18:25;12.50;99.90
13856;DHT22;6998;53.608;9.958;2023-04-24T00:20:52;12.50;99.90
13856;DHT22;6998;53.608;9.958;2023-04-24T00:23:19;12.50;99.90
13856;DHT22;6998;53.608;9.958;2023-04-24T00:25:46;12.40;99.90
13856;DHT22;6998;53.608;9.958;2023-04-24T00:28:12;12.40;99.90
13856;DHT22;6998;53.608;9.958;2023-04-24T00:30:40;12.40;99.90
13856;DHT22;6998;53.608;9.958;2023-04-24T00:33:07;12.30;99.90
13856;DHT22;6998;53.608;9.958;2023-04-24T00:35:36;12.40;99.90
13856;DHT22;6998;53.608;9.958;2023-04-24T00:38:02;12.40;99.90
13856;DHT22;6998;53.608;9.958;2023-04-24T00:40:29;12.30;99.90
13856;DHT22;6998;53.608;9.958;2023-04-24T00:42:56;12.30;99.90
13856;DHT22;6998;53.608;9.958;2023-04-24T00:45:23;12.20;99.90
13856;DHT22;6998;53.608;9.958;2023-04-24T00:47:52;12.20;99.90
13856;DHT22;6998;53.608;9.958;2023-04-24T00:50:21;12.20;99.90
13856;DHT22;6998;53.608;9.958;2023-04-24T00:52:49;12.20;99.90
13856;DHT22;6998;53.608;9.958;2023-04-24T00:55:16;12.20;99.90
13856;DHT22;6998;53.608;9.958;2023-04-24T00:57:43;12.20;99.90
13856;DHT22;6998;53.608;9.958;2023-04-24T01:00:11;12.10;99.90
13856;DHT22;6998;53.608;9.958;2023-04-24T01:02:39;12.10;99.90
13856;DHT22;6998;53.608;9.958;2023-04-24T01:05:09;12.10;99.90
13856;DHT22;6998;53.608;9.958;2023-04-24T01:07:37;12.10;99.90
13856;DHT22;6998;53.608;9.958;2023-04-24T01:10:06;12.00;99.90
13856;DHT22;6998;53.608;9.958;2023-04-24T01:12:34;11.90;99.90
13856;DHT22;6998;53.608;9.958;2023-04-24T01:15:01;11.80;99.90
13856;DHT22;6998;53.608;9.958;2023-04-24T01:17:28;11.80;99.90
13856;DHT22;6998;53.608;9.958;2023-04-24T01:19:55;11.80;99.90
13856;DHT22;6998;53.608;9.958;2023-04-24T01:22:24;11.80;99.90
13856;DHT22;6998;53.608;9.958;2023-04-24T01:24:51;11.80;99.90
13856;DHT22;6998;53.608;9.958;2023-04-24T01:27:19;11.80;99.90
13856;DHT22;6998;53.608;9.958;2023-04-24T01:29:46;11.80;99.90
13856;DHT22;6998;53.608;9.958;2023-04-24T01:32:15;11.70;99.90
13856;DHT22;6998;53.608;9.958;2023-04-24T01:34:42;11.70;99.90
13856;DHT22;6998;53.608;9.958;2023-04-24T01:37:09;11.70;99.90
13856;DHT22;6998;53.608;9.958;2023-04-24T01:39:37;11.80;99.90
13856;DHT22;6998;53.608;9.958;2023-04-24T01:42:05;11.80;99.90
13856;DHT22;6998;53.608;9.958;2023-04-24T01:44:33;11.90;99.90
13856;DHT22;6998;53.608;9.958;2023-04-24T01:47:00;11.90;99.90
13856;DHT22;6998;53.608;9.958;2023-04-24T01:49:27;11.90;99.90
13856;DHT22;6998;53.608;9.958;2023-04-24T01:51:54;11.90;99.90
13856;DHT22;6998;53.608;9.958;2023-04-24T01:54:21;11.80;99.90
13856;DHT22;6998;53.608;9.958;2023-04-24T01:56:49;11.90;99.90
13856;DHT22;6998;53.608;9.958;2023-04-24T01:59:17;12.00;99.90
13856;DHT22;6998;53.608;9.958;2023-04-24T02:01:44;12.00;99.90
13856;DHT22;6998;53.608;9.958;2023-04-24T02:04:11;12.00;99.90
13856;DHT22;6998;53.608;9.958;2023-04-24T02:06:37;12.00;99.90
13856;DHT22;6998;53.608;9.958;2023-04-24T02:09:04;12.10;99.90
13856;DHT22;6998;53.608;9.958;2023-04-24T02:11:31;12.10;99.90
13856;DHT22;6998;53.608;9.958;2023-04-24T02:13:59;11.90;99.90
13856;DHT22;6998;53.608;9.958;2023-04-24T02:16:28;11.90;99.90
13856;DHT22;6998;53.608;9.958;2023-04-24T02:18:57;11.80;99.90
13856;DHT22;6998;53.608;9.958;2023-04-24T02:21:24;11.80;99.90
13856;DHT22;6998;53.608;9.958;2023-04-24T02:23:51;11.70;99.90
13856;DHT22;6998;53.608;9.958;2023-04-24T02:26:18;11.70;99.90
13856;DHT22;6998;53.608;9.958;2023-04-24T02:28:45;11.60;99.90
13856;DHT22;6998;53.608;9.958;2023-04-24T02:31:13;11.60;99.90
13856;DHT22;6998;53.608;9.958;2023-04-24T02:33:40;11.50;99.90
13856;DHT22;6998;53.608;9.958;2023-04-24T02:36:07;11.40;99.90
13856;DHT22;6998;53.608;9.958;2023-04-24T02:38:33;11.30;99.90
13856;DHT22;6998;53.608;9.958;2023-04-24T02:41:00;11.40;99.90
13856;DHT22;6998;53.608;9.958;2023-04-24T02:43:29;11.30;99.90
13856;DHT22;6998;53.608;9.958;2023-04-24T02:45:56;11.30;99.90
13856;DHT22;6998;53.608;9.958;2023-04-24T02:48:24;11.20;99.90
13856;DHT22;6998;53.608;9.958;2023-04-24T02:50:51;11.20;99.90
13856;DHT22;6998;53.608;9.958;2023-04-24T02:53:18;11.10;99.90
13856;DHT22;6998;53.608;9.958;2023-04-24T02:55:45;11.00;99.90
13856;DHT22;6998;53.608;9.958;2023-04-24T02:58:12;10.90;99.90
13856;DHT22;6998;53.608;9.958;2023-04-24T03:00:39;10.90;99.90
13856;DHT22;6998;53.608;9.958;2023-04-24T03:03:06;11.00;99.90
13856;DHT22;6998;53.608;9.958;2023-04-24T03:05:34;10.90;99.90
13856;DHT22;6998;53.608;9.958;2023-04-24T03:08:01;11.00;99.90
13856;DHT22;6998;53.608;9.958;2023-04-24T03:10:28;10.90;99.90
13856;DHT22;6998;53.608;9.958;2023-04-24T03:12:55;10.90;99.90
13856;DHT22;6998;53.608;9.958;2023-04-24T03:15:22;10.90;99.90
13856;DHT22;6998;53.608;9.958;2023-04-24T03:17:48;10.90;99.90
13856;DHT22;6998;53.608;9.958;2023-04-24T03:20:15;10.90;99.90
13856;DHT22;6998;53.608;9.958;2023-04-24T03:22:44;10.80;99.90
13856;DHT22;6998;53.608;9.958;2023-04-24T03:25:11;10.70;99.90
13856;DHT22;6998;53.608;9.958;2023-04-24T03:27:37;10.70;99.90
13856;DHT22;6998;53.608;9.958;2023-04-24T03:30:06;10.70;99.90
13856;DHT22;6998;53.608;9.958;2023-04-24T03:32:33;10.60;99.90
13856;DHT22;6998;53.608;9.958;2023-04-24T03:35:00;10.60;99.90
13856;DHT22;6998;53.608;9.958;2023-04-24T03:37:26;10.60;99.90
13856;DHT22;6998;53.608;9.958;2023-04-24T03:39:55;10.70;99.90
13856;DHT22;6998;53.608;9.958;2023-04-24T03:42:21;10.70;99.90
13856;DHT22;6998;53.608;9.958;2023-04-24T03:44:48;10.80;99.90
13856;DHT22;6998;53.608;9.958;2023-04-24T03:47:15;10.80;99.90
13856;DHT22;6998;53.608;9.958;2023-04-24T03:49:44;10.80;99.90
13856;DHT22;6998;53.608;9.958;2023-04-24T03:52:11;10.80;99.90
13856;DHT22;6998;53.608;9.958;2023-04-24T03:54:37;10.80;99.90
13856;DHT22;6998;53.608;9.958;2023-04-24T03:57:06;10.70;99.90
13856;DHT22;6998;53.608;9.958;2023-04-24T03:59:32;10.60;99.90
13856;DHT22;6998;53.608;9.958;2023-04-24T04:01:59;10.50;99.90
13856;DHT22;6998;53.608;9.958;2023-04-24T04:04:26;10.60;99.90
13856;DHT22;6998;53.608;9.958;2023-04-24T04:06:53;10.60;99.90
13856;DHT22;6998;53.608;9.958;2023-04-24T04:09:20;10.60;99.90
13856;DHT22;6998;53.608;9.958;2023-04-24T04:11:47;10.60;99.90
13856;DHT22;6998;53.608;9.958;2023-04-24T04:14:15;10.60;99.90
13856;DHT22;6998;53.608;9.958;2023-04-24T04:16:42;10.60;99.90
13856;DHT22;6998;53.608;9.958;2023-04-24T04:19:09;10.50;99.90
13856;DHT22;6998;53.608;9.958;2023-04-24T04:21:36;10.50;99.90
13856;DHT22;6998;53.608;9.958;2023-04-24T04:24:03;10.50;99.90
13856;DHT22;6998;53.608;9.958;2023-04-24T04:26:30;10.50;99.90
13856;DHT22;6998;53.608;9.958;2023-04-24T04:28:58;10.50;99.90
13856;DHT22;6998;53.608;9.958;2023-04-24T04:31:27;10.50;99.90
13856;DHT22;6998;53.608;9.958;2023-04-24T04:33:54;10.50;99.90
13856;DHT22;6998;53.608;9.958;2023-04-24T04:36:21;10.40;99.90
13856;DHT22;6998;53.608;9.958;2023-04-24T04:38:49;10.40;99.90
13856;DHT22;6998;53.608;9.958;2023-04-24T04:41:16;10.50;99.90
13856;DHT22;6998;53.608;9.958;2023-04-24T04:43:43;10.50;99.90
13856;DHT22;6998;53.608;9.958;2023-04-24T04:46:11;10.50;99.90
13856;DHT22;6998;53.608;9.958;2023-04-24T04:48:40;10.50;99.90
13856;DHT22;6998;53.608;9.958;2023-04-24T04:51:06;10.70;99.90
13856;DHT22;6998;53.608;9.958;2023-04-24T04:53:33;10.80;99.90
13856;DHT22;6998;53.608;9.958;2023-04-24T04:56:00;11.00;99.90
13856;DHT22;6998;53.608;9.958;2023-04-24T04:58:27;11.00;99.90
13856;DHT22;6998;53.608;9.958;2023-04-24T05:00:54;11.20;99.90
13856;DHT22;6998;53.608;9.958;2023-04-24T05:03:22;11.30;99.90
13856;DHT22;6998;53.608;9.958;2023-04-24T05:05:51;11.20;99.90
13856;DHT22;6998;53.608;9.958;2023-04-24T05:08:21;11.20;99.90
13856;DHT22;6998;53.608;9.958;2023-04-24T05:10:47;11.20;99.90
13856;DHT22;6998;53.608;9.958;2023-04-24T05:13:14;11.10;99.90
13856;DHT22;6998;53.608;9.958;2023-04-24T05:15:41;11.00;99.90
13856;DHT22;6998;53.608;9.958;2023-04-24T05:18:08;10.90;99.90
13856;DHT22;6998;53.608;9.958;2023-04-24T05:20:35;10.90;99.90
13856;DHT22;6998;53.608;9.958;2023-04-24T05:23:03;10.80;99.90
13856;DHT22;6998;53.608;9.958;2023-04-24T05:25:30;10.80;99.90
13856;DHT22;6998;53.608;9.958;2023-04-24T05:28:00;10.80;99.90
13856;DHT22;6998;53.608;9.958;2023-04-24T05:30:27;10.90;99.90
13856;DHT22;6998;53.608;9.958;2023-04-24T05:32:54;11.00;99.90
13856;DHT22;6998;53.608;9.958;2023-04-24T05:35:21;11.10;99.90
13856;DHT22;6998;53.608;9.958;2023-04-24T05:37:48;11.20;99.90
13856;DHT22;6998;53.608;9.958;2023-04-24T05:40:16;11.20;99.90
13856;DHT22;6998;53.608;9.958;2023-04-24T05:42:45;11.30;99.90
13856;DHT22;6998;53.608;9.958;2023-04-24T05:45:13;11.40;99.90
13856;DHT22;6998;53.608;9.958;2023-04-24T05:47:42;11.50;99.90
13856;DHT22;6998;53.608;9.958;2023-04-24T05:50:09;11.50;99.90
13856;DHT22;6998;53.608;9.958;2023-04-24T05:52:36;11.50;99.90
13856;DHT22;6998;53.608;9.958;2023-04-24T05:55:04;11.50;99.90
13856;DHT22;6998;53.608;9.958;2023-04-24T05:57:32;11.50;99.90
13856;DHT22;6998;53.608;9.958;2023-04-24T06:00:00;11.50;99.90
13856;DHT22;6998;53.608;9.958;2023-04-24T06:02:27;11.50;99.90
13856;DHT22;6998;53.608;9.958;2023-04-24T06:04:57;11.50;99.90
13856;DHT22;6998;53.608;9.958;2023-04-24T06:07:24;11.60;99.90
13856;DHT22;6998;53.608;9.958;2023-04-24T06:09:52;11.50;99.90
13856;DHT22;6998;53.608;9.958;2023-04-24T06:12:19;11.70;99.90
13856;DHT22;6998;53.608;9.958;2023-04-24T06:14:47;11.60;99.90
13856;DHT22;6998;53.608;9.958;2023-04-24T06:17:15;11.60;99.90
13856;DHT22;6998;53.608;9.958;2023-04-24T06:19:42;11.60;99.90
13856;DHT22;6998;53.608;9.958;2023-04-24T06:22:08;11.70;99.90
13856;DHT22;6998;53.608;9.958;2023-04-24T06:24:36;11.70;99.90
13856;DHT22;6998;53.608;9.958;2023-04-24T06:27:02;11.70;99.90
13856;DHT22;6998;53.608;9.958;2023-04-24T06:29:29;11.70;99.90
13856;DHT22;6998;53.608;9.958;2023-04-24T06:31:58;11.80;99.90
13856;DHT22;6998;53.608;9.958;2023-04-24T06:34:24;11.80;99.90
13856;DHT22;6998;53.608;9.958;2023-04-24T06:36:51;12.00;99.90
13856;DHT22;6998;53.608;9.958;2023-04-24T06:39:18;12.00;99.90
13856;DHT22;6998;53.608;9.958;2023-04-24T06:41:45;12.00;99.90
13856;DHT22;6998;53.608;9.958;2023-04-24T06:44:12;12.00;99.90
13856;DHT22;6998;53.608;9.958;2023-04-24T06:46:40;12.10;99.90
13856;DHT22;6998;53.608;9.958;2023-04-24T06:49:08;12.10;99.90
13856;DHT22;6998;53.608;9.958;2023-04-24T06:51:35;12.10;99.90
13856;DHT22;6998;53.608;9.958;2023-04-24T06:54:02;12.20;99.90
13856;DHT22;6998;53.608;9.958;2023-04-24T06:56:28;12.40;99.90
13856;DHT22;6998;53.608;9.958;2023-04-24T06:58:57;12.50;99.90
13856;DHT22;6998;53.608;9.958;2023-04-24T07:01:24;12.70;99.90
13856;DHT22;6998;53.608;9.958;2023-04-24T07:03:51;12.80;99.90
13856;DHT22;6998;53.608;9.958;2023-04-24T07:06:19;12.80;99.90
13856;DHT22;6998;53.608;9.958;2023-04-24T07:08:50;12.90;99.90
13856;DHT22;6998;53.608;9.958;2023-04-24T07:11:16;13.00;99.90
13856;DHT22;6998;53.608;9.958;2023-04-24T07:13:43;13.00;99.90
13856;DHT22;6998;53.608;9.958;2023-04-24T07:16:10;13.10;99.90
13856;DHT22;6998;53.608;9.958;2023-04-24T07:18:38;13.20;99.90
13856;DHT22;6998;53.608;9.958;2023-04-24T07:21:05;13.50;99.90
13856;DHT22;6998;53.608;9.958;2023-04-24T07:23:34;13.60;99.90
13856;DHT22;6998;53.608;9.958;2023-04-24T07:26:00;13.70;99.90
13856;DHT22;6998;53.608;9.958;2023-04-24T07:28:27;13.70;99.90
13856;DHT22;6998;53.608;9.958;2023-04-24T07:30:58;13.60;99.90
13856;DHT22;6998;53.608;9.958;2023-04-24T07:33:25;13.60;99.90
13856;DHT22;6998;53.608;9.958;2023-04-24T07:35:52;13.70;99.90
13856;DHT22;6998;53.608;9.958;2023-04-24T07:38:19;13.60;99.90
13856;DHT22;6998;53.608;9.958;2023-04-24T07:40:49;13.70;99.90
13856;DHT22;6998;53.608;9.958;2023-04-24T07:43:16;13.70;99.90
13856;DHT22;6998;53.608;9.958;2023-04-24T07:45:43;13.70;99.90
13856;DHT22;6998;53.608;9.958;2023-04-24T07:48:10;13.80;99.90
13856;DHT22;6998;53.608;9.958;2023-04-24T07:50:36;13.80;99.90
13856;DHT22;6998;53.608;9.958;2023-04-24T07:53:03;14.10;99.90
13856;DHT22;6998;53.608;9.958;2023-04-24T07:55:30;14.30;99.90
13856;DHT22;6998;53.608;9.958;2023-04-24T07:57:58;14.40;99.90
13856;DHT22;6998;53.608;9.958;2023-04-24T08:00:25;14.50;99.90
13856;DHT22;6998;53.608;9.958;2023-04-24T08:02:52;14.50;99.90
13856;DHT22;6998;53.608;9.958;2023-04-24T08:05:19;14.40;99.90
13856;DHT22;6998;53.608;9.958;2023-04-24T08:07:46;14.40;99.90
13856;DHT22;6998;53.608;9.958;2023-04-24T08:10:14;14.20;99.90
13856;DHT22;6998;53.608;9.958;2023-04-24T08:12:41;14.10;99.90
13856;DHT22;6998;53.608;9.958;2023-04-24T08:15:12;14.00;99.90
13856;DHT22;6998;53.608;9.958;2023-04-24T08:17:39;14.00;99.90
13856;DHT22;6998;53.608;9.958;2023-04-24T08:20:07;13.90;99.90
13856;DHT22;6998;53.608;9.958;2023-04-24T08:22:38;14.10;99.90
13856;DHT22;6998;53.608;9.958;2023-04-24T08:25:06;14.40;99.90
13856;DHT22;6998;53.608;9.958;2023-04-24T08:27:34;14.60;99.90
13856;DHT22;6998;53.608;9.958;2023-04-24T08:30:02;14.50;99.90
13856;DHT22;6998;53.608;9.958;2023-04-24T08:32:30;14.60;99.90
13856;DHT22;6998;53.608;9.958;2023-04-24T08:34:58;14.60;99.90
13856;DHT22;6998;53.608;9.958;2023-04-24T08:37:26;14.70;99.90
13856;DHT22;6998;53.608;9.958;2023-04-24T08:39:54;14.50;99.90
13856;DHT22;6998;53.608;9.958;2023-04-24T08:42:21;14.40;99.90
13856;DHT22;6998;53.608;9.958;2023-04-24T08:44:49;14.40;99.90
13856;DHT22;6998;53.608;9.958;2023-04-24T08:47:16;14.40;99.90
13856;DHT22;6998;53.608;9.958;2023-04-24T08:49:48;14.40;99.90
13856;DHT22;6998;53.608;9.958;2023-04-24T08:52:16;14.30;99.90
13856;DHT22;6998;53.608;9.958;2023-04-24T08:54:47;14.30;99.90
13856;DHT22;6998;53.608;9.958;2023-04-24T08:57:15;14.20;99.90
13856;DHT22;6998;53.608;9.958;2023-04-24T08:59:45;14.10;99.90
13856;DHT22;6998;53.608;9.958;2023-04-24T09:02:13;14.10;99.90
13856;DHT22;6998;53.608;9.958;2023-04-24T09:04:41;14.10;99.90
13856;DHT22;6998;53.608;9.958;2023-04-24T09:07:12;14.30;99.90
13856;DHT22;6998;53.608;9.958;2023-04-24T09:09:42;14.40;99.90
13856;DHT22;6998;53.608;9.958;2023-04-24T09:12:09;14.50;99.90
13856;DHT22;6998;53.608;9.958;2023-04-24T09:14:36;14.70;99.90
13856;DHT22;6998;53.608;9.958;2023-04-24T09:17:05;15.10;99.90
13856;DHT22;6998;53.608;9.958;2023-04-24T09:19:32;15.40;99.90
13856;DHT22;6998;53.608;9.958;2023-04-24T09:21:59;15.70;99.90
13856;DHT22;6998;53.608;9.958;2023-04-24T09:24:27;15.80;99.90
13856;DHT22;6998;53.608;9.958;2023-04-24T09:26:56;15.60;99.90
13856;DHT22;6998;53.608;9.958;2023-04-24T09:29:24;15.40;99.90
13856;DHT22;6998;53.608;9.958;2023-04-24T09:31:51;15.40;99.90
13856;DHT22;6998;53.608;9.958;2023-04-24T09:34:21;15.20;99.90
13856;DHT22;6998;53.608;9.958;2023-04-24T09:36:49;15.10;99.90
13856;DHT22;6998;53.608;9.958;2023-04-24T09:39:17;15.20;99.90
13856;DHT22;6998;53.608;9.958;2023-04-24T09:41:48;15.20;99.90
13856;DHT22;6998;53.608;9.958;2023-04-24T09:44:16;15.20;99.90
13856;DHT22;6998;53.608;9.958;2023-04-24T09:46:45;15.30;99.90
13856;DHT22;6998;53.608;9.958;2023-04-24T09:49:17;15.40;99.90
13856;DHT22;6998;53.608;9.958;2023-04-24T09:51:46;15.30;99.90
13856;DHT22;6998;53.608;9.958;2023-04-24T09:54:15;15.20;99.90
13856;DHT22;6998;53.608;9.958;2023-04-24T09:56:47;15.00;99.90
13856;DHT22;6998;53.608;9.958;2023-04-24T09:59:16;15.10;99.90
13856;DHT22;6998;53.608;9.958;2023-04-24T10:01:43;15.00;99.90
13856;DHT22;6998;53.608;9.958;2023-04-24T10:04:17;15.10;99.90
13856;DHT22;6998;53.608;9.958;2023-04-24T10:06:45;15.20;99.90
13856;DHT22;6998;53.608;9.958;2023-04-24T10:09:12;15.00;99.90
13856;DHT22;6998;53.608;9.958;2023-04-24T10:11:42;14.80;99.90
13856;DHT22;6998;53.608;9.958;2023-04-24T10:14:12;14.70;99.90
13856;DHT22;6998;53.608;9.958;2023-04-24T10:16:40;14.50;99.90
13856;DHT22;6998;53.608;9.958;2023-04-24T10:19:07;14.40;99.90
13856;DHT22;6998;53.608;9.958;2023-04-24T10:21:34;14.50;99.90
13856;DHT22;6998;53.608;9.958;2023-04-24T10:24:03;14.50;99.90
13856;DHT22;6998;53.608;9.958;2023-04-24T10:26:30;14.30;99.90
13856;DHT22;6998;53.608;9.958;2023-04-24T10:28:58;14.40;99.90
13856;DHT22;6998;53.608;9.958;2023-04-24T10:31:27;14.40;99.90
13856;DHT22;6998;53.608;9.958;2023-04-24T10:33:58;14.50;99.90
13856;DHT22;6998;53.608;9.958;2023-04-24T10:36:27;14.60;99.90
13856;DHT22;6998;53.608;9.958;2023-04-24T10:39:00;14.80;99.90
13856;DHT22;6998;53.608;9.958;2023-04-24T10:41:27;14.90;99.90
13856;DHT22;6998;53.608;9.958;2023-04-24T10:44:05;15.00;99.90
13856;DHT22;6998;53.608;9.958;2023-04-24T10:46:34;15.00;99.90
13856;DHT22;6998;53.608;9.958;2023-04-24T10:49:04;15.10;99.90
13856;DHT22;6998;53.608;9.958;2023-04-24T10:51:45;15.10;99.90
13856;DHT22;6998;53.608;9.958;2023-04-24T10:54:26;15.00;99.90
13856;DHT22;6998;53.608;9.958;2023-04-24T10:56:53;14.90;99.90
13856;DHT22;6998;53.608;9.958;2023-04-24T10:59:25;14.80;99.90
13856;DHT22;6998;53.608;9.958;2023-04-24T11:01:56;15.00;99.90
13856;DHT22;6998;53.608;9.958;2023-04-24T11:04:29;15.00;99.90
13856;DHT22;6998;53.608;9.958;2023-04-24T11:06:57;15.10;99.90
13856;DHT22;6998;53.608;9.958;2023-04-24T11:09:26;15.20;99.90
13856;DHT22;6998;53.608;9.958;2023-04-24T11:12:03;15.40;99.90
13856;DHT22;6998;53.608;9.958;2023-04-24T11:15:00;15.40;99.90
13856;DHT22;6998;53.608;9.958;2023-04-24T11:17:31;15.60;99.90
13856;DHT22;6998;53.608;9.958;2023-04-24T11:20:02;15.60;99.90
13856;DHT22;6998;53.608;9.958;2023-04-24T11:22:34;15.70;99.90
13856;DHT22;6998;53.608;9.958;2023-04-24T11:25:02;15.80;99.90
13856;DHT22;6998;53.608;9.958;2023-04-24T11:27:30;16.00;99.90
13856;DHT22;6998;53.608;9.958;2023-04-24T11:30:00;15.80;99.90
13856;DHT22;6998;53.608;9.958;2023-04-24T11:32:34;15.80;99.90
13856;DHT22;6998;53.608;9.958;2023-04-24T11:35:02;15.90;99.90
13856;DHT22;6998;53.608;9.958;2023-04-24T11:37:35;16.00;99.90
13856;DHT22;6998;53.608;9.958;2023-04-24T11:40:02;15.90;99.90
13856;DHT22;6998;53.608;9.958;2023-04-24T11:42:34;15.90;99.90
13856;DHT22;6998;53.608;9.958;2023-04-24T11:45:01;16.00;99.90
13856;DHT22;6998;53.608;9.958;2023-04-24T11:47:32;15.90;99.90
13856;DHT22;6998;53.608;9.958;2023-04-24T11:50:00;15.90;99.90
13856;DHT22;6998;53.608;9.958;2023-04-24T11:52:27;15.60;99.90
13856;DHT22;6998;53.608;9.958;2023-04-24T11:54:54;15.70;99.90
13856;DHT22;6998;53.608;9.958;2023-04-24T11:57:21;15.80;99.90
13856;DHT22;6998;53.608;9.958;2023-04-24T11:59:49;15.80;99.90
13856;DHT22;6998;53.608;9.958;2023-04-24T12:02:23;15.60;99.90
13856;DHT22;6998;53.608;9.958;2023-04-24T12:04:52;15.30;99.90
13856;DHT22;6998;53.608;9.958;2023-04-24T12:07:19;15.30;99.90
13856;DHT22;6998;53.608;9.958;2023-04-24T12:09:47;15.30;99.90
13856;DHT22;6998;53.608;9.958;2023-04-24T12:12:16;15.40;99.90
13856;DHT22;6998;53.608;9.958;2023-04-24T12:14:53;15.50;99.90
13856;DHT22;6998;53.608;9.958;2023-04-24T12:17:25;15.80;99.90
13856;DHT22;6998;53.608;9.958;2023-04-24T12:19:57;15.90;99.90
13856;DHT22;6998;53.608;9.958;2023-04-24T12:22:24;16.10;99.90
13856;DHT22;6998;53.608;9.958;2023-04-24T12:24:59;16.10;99.90
13856;DHT22;6998;53.608;9.958;2023-04-24T12:27:29;16.10;99.90
13856;DHT22;6998;53.608;9.958;2023-04-24T12:29:57;15.90;99.90
13856;DHT22;6998;53.608;9.958;2023-04-24T12:32:25;15.60;99.90
13856;DHT22;6998;53.608;9.958;2023-04-24T12:34:54;15.30;99.90
13856;DHT22;6998;53.608;9.958;2023-04-24T12:37:23;15.00;99.90
13856;DHT22;6998;53.608;9.958;2023-04-24T12:40:07;14.70;99.90
13856;DHT22;6998;53.608;9.958;2023-04-24T12:42:35;14.60;99.90
13856;DHT22;6998;53.608;9.958;2023-04-24T12:45:03;14.60;99.90
13856;DHT22;6998;53.608;9.958;2023-04-24T12:47:31;14.60;99.90
13856;DHT22;6998;53.608;9.958;2023-04-24T12:49:59;14.50;99.90
13856;DHT22;6998;53.608;9.958;2023-04-24T12:52:28;14.50;99.90
13856;DHT22;6998;53.608;9.958;2023-04-24T12:54:58;14.50;99.90
13856;DHT22;6998;53.608;9.958;2023-04-24T12:57:26;14.50;99.90
13856;DHT22;6998;53.608;9.958;2023-04-24T12:59:54;14.40;99.90
13856;DHT22;6998;53.608;9.958;2023-04-24T13:02:20;14.40;99.90
13856;DHT22;6998;53.608;9.958;2023-04-24T13:04:48;14.30;99.90
13856;DHT22;6998;53.608;9.958;2023-04-24T13:07:16;14.20;99.90
13856;DHT22;6998;53.608;9.958;2023-04-24T13:09:44;14.00;99.90
13856;DHT22;6998;53.608;9.958;2023-04-24T13:12:12;14.00;99.90
13856;DHT22;6998;53.608;9.958;2023-04-24T13:14:39;14.00;99.90
13856;DHT22;6998;53.608;9.958;2023-04-24T13:17:06;14.00;99.90
13856;DHT22;6998;53.608;9.958;2023-04-24T13:19:36;13.90;99.90
13856;DHT22;6998;53.608;9.958;2023-04-24T13:22:03;14.00;99.90
13856;DHT22;6998;53.608;9.958;2023-04-24T13:24:31;14.00;99.90
13856;DHT22;6998;53.608;9.958;2023-04-24T13:26:58;13.90;99.90
13856;DHT22;6998;53.608;9.958;2023-04-24T13:29:26;14.00;99.90
13856;DHT22;6998;53.608;9.958;2023-04-24T13:31:53;14.10;99.90
13856;DHT22;6998;53.608;9.958;2023-04-24T13:34:21;14.30;99.90
13856;DHT22;6998;53.608;9.958;2023-04-24T13:36:48;14.30;99.90
13856;DHT22;6998;53.608;9.958;2023-04-24T13:39:15;14.30;99.90
13856;DHT22;6998;53.608;9.958;2023-04-24T13:41:43;14.10;99.90
13856;DHT22;6998;53.608;9.958;2023-04-24T13:44:10;14.10;99.90
13856;DHT22;6998;53.608;9.958;2023-04-24T13:46:37;13.90;99.90
13856;DHT22;6998;53.608;9.958;2023-04-24T13:49:04;13.80;99.90
13856;DHT22;6998;53.608;9.958;2023-04-24T13:51:31;13.70;99.90
13856;DHT22;6998;53.608;9.958;2023-04-24T13:53:57;13.70;99.90
13856;DHT22;6998;53.608;9.958;2023-04-24T13:56:26;13.50;99.90
13856;DHT22;6998;53.608;9.958;2023-04-24T13:58:54;13.40;99.90
13856;DHT22;6998;53.608;9.958;2023-04-24T14:01:21;13.40;99.90
13856;DHT22;6998;53.608;9.958;2023-04-24T14:03:50;13.50;99.90
13856;DHT22;6998;53.608;9.958;2023-04-24T14:06:17;13.70;99.90
13856;DHT22;6998;53.608;9.958;2023-04-24T14:08:44;13.80;99.90
13856;DHT22;6998;53.608;9.958;2023-04-24T14:11:11;14.00;99.90
13856;DHT22;6998;53.608;9.958;2023-04-24T14:13:38;14.20;99.90
13856;DHT22;6998;53.608;9.958;2023-04-24T14:16:08;14.20;99.90
13856;DHT22;6998;53.608;9.958;2023-04-24T14:18:35;14.20;99.90
13856;DHT22;6998;53.608;9.958;2023-04-24T14:21:02;14.00;99.90
13856;DHT22;6998;53.608;9.958;2023-04-24T14:23:29;14.00;99.90
13856;DHT22;6998;53.608;9.958;2023-04-24T14:25:57;13.90;99.90
13856;DHT22;6998;53.608;9.958;2023-04-24T14:28:24;13.80;99.90
13856;DHT22;6998;53.608;9.958;2023-04-24T14:30:52;13.60;99.90
13856;DHT22;6998;53.608;9.958;2023-04-24T14:33:20;13.40;99.90
13856;DHT22;6998;53.608;9.958;2023-04-24T14:35:47;13.10;99.90
13856;DHT22;6998;53.608;9.958;2023-04-24T14:38:14;12.90;99.90
13856;DHT22;6998;53.608;9.958;2023-04-24T14:40:41;12.70;99.90
13856;DHT22;6998;53.608;9.958;2023-04-24T14:43:08;12.60;99.90
13856;DHT22;6998;53.608;9.958;2023-04-24T14:45:36;12.50;99.90
13856;DHT22;6998;53.608;9.958;2023-04-24T14:48:03;12.30;99.90
13856;DHT22;6998;53.608;9.958;2023-04-24T14:50:32;12.10;99.90
13856;DHT22;6998;53.608;9.958;2023-04-24T14:52:58;12.10;99.90
13856;DHT22;6998;53.608;9.958;2023-04-24T14:55:27;12.10;99.90
13856;DHT22;6998;53.608;9.958;2023-04-24T14:57:54;12.10;99.90
13856;DHT22;6998;53.608;9.958;2023-04-24T15:00:21;12.20;99.90
13856;DHT22;6998;53.608;9.958;2023-04-24T15:02:48;12.40;99.90
13856;DHT22;6998;53.608;9.958;2023-04-24T15:05:15;12.30;99.90
13856;DHT22;6998;53.608;9.958;2023-04-24T15:07:43;12.30;99.90
13856;DHT22;6998;53.608;9.958;2023-04-24T15:10:11;12.30;99.90
13856;DHT22;6998;53.608;9.958;2023-04-24T15:12:37;12.10;99.90
13856;DHT22;6998;53.608;9.958;2023-04-24T15:15:06;11.80;99.90
13856;DHT22;6998;53.608;9.958;2023-04-24T15:17:33;11.80;99.90
13856;DHT22;6998;53.608;9.958;2023-04-24T15:19:59;11.70;99.90
13856;DHT22;6998;53.608;9.958;2023-04-24T15:22:28;11.50;99.90
13856;DHT22;6998;53.608;9.958;2023-04-24T15:24:56;11.40;99.90
13856;DHT22;6998;53.608;9.958;2023-04-24T15:27:23;11.20;99.90
13856;DHT22;6998;53.608;9.958;2023-04-24T15:29:50;11.00;99.90
13856;DHT22;6998;53.608;9.958;2023-04-24T15:32:19;10.90;99.90
13856;DHT22;6998;53.608;9.958;2023-04-24T15:34:46;10.90;99.90
13856;DHT22;6998;53.608;9.958;2023-04-24T15:37:13;10.80;99.90
13856;DHT22;6998;53.608;9.958;2023-04-24T15:39:40;10.70;99.90
13856;DHT22;6998;53.608;9.958;2023-04-24T15:42:08;10.60;99.90
13856;DHT22;6998;53.608;9.958;2023-04-24T15:44:37;10.40;99.90
13856;DHT22;6998;53.608;9.958;2023-04-24T15:47:04;10.40;99.90
13856;DHT22;6998;53.608;9.958;2023-04-24T15:49:31;10.40;99.90